createdAt,value
2024-04-21T00:02:05.887Z,65.00
2024-04-21T00:04:33.781Z,64.91
2024-04-21T00:07:03.067Z,64.80
2024-04-21T00:09:30.912Z,64.83
2024-04-21T00:11:58.997Z,64.63
2024-04-21T00:14:27.016Z,64.64
2024-04-21T00:16:54.991Z,65.00
2024-04-21T00:19:23.379Z,65.09
2024-04-21T00:21:51.387Z,65.01
2024-04-21T00:24:19.171Z,65.09
2024-04-21T00:26:46.989Z,65.03
2024-04-21T00:29:16.215Z,64.87
2024-04-21T00:31:44.118Z,64.72
2024-04-21T00:34:11.992Z,64.92
2024-04-21T00:36:41.163Z,64.89
2024-04-21T00:39:09.241Z,65.08
2024-04-21T00:41:37.041Z,64.96
2024-04-21T00:44:05.283Z,64.98
2024-04-21T00:46:33.318Z,65.02
2024-04-21T00:49:02.490Z,65.06
2024-04-21T00:51:31.147Z,65.44
2024-04-21T00:53:59.184Z,65.85
2024-04-21T00:56:27.744Z,65.50
2024-04-21T00:58:56.130Z,65.46
2024-04-21T01:01:24.543Z,65.33
2024-04-21T01:03:53.578Z,65.17
2024-04-21T01:06:21.549Z,65.06
2024-04-21T01:08:50.192Z,64.96
2024-04-21T01:11:19.024Z,64.86
2024-04-21T01:13:47.323Z,65.00
2024-04-21T01:16:15.775Z,65.04
2024-04-21T01:18:45.733Z,65.25
2024-04-21T01:21:14.143Z,65.47
2024-04-21T01:23:41.992Z,65.22
2024-04-21T01:26:10.404Z,65.14
2024-04-21T01:28:38.467Z,65.26
2024-04-21T01:31:06.299Z,65.25
2024-04-21T01:33:34.263Z,65.40
2024-04-21T01:36:02.282Z,65.37
2024-04-21T01:38:30.385Z,65.26
2024-04-21T01:40:58.163Z,65.42
2024-04-21T01:43:26.037Z,65.40
2024-04-21T01:45:54.449Z,65.31
2024-04-21T01:48:22.358Z,65.27
2024-04-21T01:50:50.237Z,65.10
2024-04-21T01:53:18.188Z,64.97
2024-04-21T01:55:46.178Z,64.81
2024-04-21T01:58:14.877Z,64.82
2024-04-21T02:00:42.958Z,64.80
2024-04-21T02:03:11.139Z,64.57
2024-04-21T02:05:39.450Z,64.49
2024-04-21T02:08:08.242Z,64.48
2024-04-21T02:10:36.120Z,64.32
2024-04-21T02:13:04.384Z,64.18
2024-04-21T02:15:32.238Z,64.10
2024-04-21T02:18:00.133Z,64.07
2024-04-21T02:20:27.987Z,64.07
2024-04-21T02:22:56.003Z,63.96
2024-04-21T02:25:23.851Z,64.33
2024-04-21T02:27:51.802Z,64.36
2024-04-21T02:30:21.366Z,64.84
2024-04-21T02:32:50.620Z,64.96
2024-04-21T02:35:18.526Z,65.04
2024-04-21T02:37:46.925Z,65.13
2024-04-21T02:40:15.145Z,65.16
2024-04-21T02:42:43.300Z,65.06
2024-04-21T02:45:11.116Z,65.35
2024-04-21T02:47:39.015Z,65.29
2024-04-21T02:50:07.465Z,65.05
2024-04-21T02:52:35.925Z,65.13
2024-04-21T02:55:04.277Z,65.14
2024-04-21T02:57:33.157Z,65.03
2024-04-21T03:00:01.229Z,65.06
2024-04-21T03:02:29.853Z,64.96
2024-04-21T03:04:57.894Z,65.00
2024-04-21T03:07:25.968Z,64.99
2024-04-21T03:09:54.057Z,64.88
2024-04-21T03:12:22.060Z,64.98
2024-04-21T03:14:50.052Z,64.84
2024-04-21T03:17:18.615Z,64.86
2024-04-21T03:19:48.251Z,65.00
2024-04-21T03:22:16.166Z,64.94
2024-04-21T03:24:44.445Z,65.17
2024-04-21T03:27:12.588Z,65.39
2024-04-21T03:29:41.340Z,65.58
2024-04-21T03:32:09.213Z,65.55
2024-04-21T03:34:37.069Z,65.51
2024-04-21T03:37:05.546Z,65.53
2024-04-21T03:39:34.230Z,65.88
2024-04-21T03:42:02.569Z,65.99
2024-04-21T03:44:30.410Z,65.95
2024-04-21T03:46:58.584Z,65.87
2024-04-21T03:49:26.710Z,65.86
2024-04-21T03:51:54.775Z,65.75
2024-04-21T03:54:22.711Z,65.69
2024-04-21T03:56:50.758Z,65.74
2024-04-21T03:59:18.549Z,65.68
2024-04-21T04:01:46.836Z,65.60
2024-04-21T04:04:15.163Z,65.63
2024-04-21T04:06:43.071Z,65.42
2024-04-21T04:09:10.937Z,65.45
2024-04-21T04:11:38.874Z,65.44
2024-04-21T04:14:06.782Z,65.43
2024-04-21T04:16:34.835Z,65.73
2024-04-21T04:19:02.935Z,66.04
2024-04-21T04:21:32.478Z,65.93
2024-04-21T04:24:00.437Z,66.04
2024-04-21T04:26:28.367Z,65.93
2024-04-21T04:28:56.175Z,65.96
2024-04-21T04:31:24.378Z,65.80
2024-04-21T04:33:53.032Z,66.04
2024-04-21T04:36:21.519Z,65.83
2024-04-21T04:38:49.742Z,65.92
2024-04-21T04:41:17.609Z,65.94
2024-04-21T04:43:45.628Z,66.05
2024-04-21T04:46:13.608Z,66.14
2024-04-21T04:48:41.741Z,66.02
2024-04-21T04:51:09.844Z,66.00
2024-04-21T04:53:39.298Z,66.07
2024-04-21T04:56:08.362Z,66.04
2024-04-21T04:58:36.197Z,66.02
2024-04-21T05:01:04.248Z,66.04
2024-04-21T05:03:32.115Z,65.96
2024-04-21T05:06:00.059Z,66.04
2024-04-21T05:08:27.844Z,66.26
2024-04-21T05:10:55.579Z,66.44
2024-04-21T05:13:23.652Z,66.36
2024-04-21T05:15:51.453Z,66.30
2024-04-21T05:18:19.651Z,66.42
2024-04-21T05:20:47.927Z,66.57
2024-04-21T05:23:15.727Z,66.51
2024-04-21T05:25:43.515Z,66.61
2024-04-21T05:28:11.939Z,66.59
2024-04-21T05:30:39.913Z,66.80
2024-04-21T05:33:07.980Z,67.04
2024-04-21T05:35:37.167Z,67.07
2024-04-21T05:38:06.579Z,67.17
2024-04-21T05:40:34.439Z,67.63
2024-04-21T05:43:02.491Z,67.60
2024-04-21T05:45:30.590Z,67.68
2024-04-21T05:47:58.811Z,67.62
2024-04-21T05:50:27.603Z,67.77
2024-04-21T05:52:55.776Z,67.72
2024-04-21T05:55:23.858Z,67.71
2024-04-21T05:57:52.038Z,67.67
2024-04-21T06:00:20.283Z,67.61
2024-04-21T06:02:48.146Z,67.52
2024-04-21T06:05:16.497Z,67.69
2024-04-21T06:07:44.649Z,67.71
2024-04-21T06:10:12.754Z,67.47
2024-04-21T06:12:40.943Z,67.38
2024-04-21T06:15:08.971Z,67.52
2024-04-21T06:17:37.188Z,67.38
2024-04-21T06:20:06.292Z,67.67
2024-04-21T06:22:34.488Z,67.20
2024-04-21T06:25:02.301Z,66.95
2024-04-21T06:27:34.479Z,66.83
2024-04-21T06:30:02.617Z,66.74
2024-04-21T06:32:30.768Z,66.90
2024-04-21T06:34:58.795Z,66.25
2024-04-21T06:37:27.481Z,65.86
2024-04-21T06:39:55.400Z,65.75
2024-04-21T06:42:23.388Z,65.97
2024-04-21T06:44:51.447Z,65.53
2024-04-21T06:47:19.302Z,64.21
2024-04-21T06:49:47.523Z,64.65
2024-04-21T06:52:15.727Z,64.17
2024-04-21T06:54:43.903Z,64.08
2024-04-21T06:57:11.842Z,64.12
2024-04-21T06:59:40.543Z,63.97
2024-04-21T07:02:08.823Z,63.57
2024-04-21T07:04:36.866Z,63.21
2024-04-21T07:07:05.040Z,63.51
2024-04-21T07:09:33.644Z,62.55
2024-04-21T07:12:01.827Z,62.25
2024-04-21T07:14:29.845Z,61.85
2024-04-21T07:16:57.617Z,61.48
2024-04-21T07:19:25.709Z,61.59
2024-04-21T07:21:58.856Z,59.48
2024-04-21T07:24:26.877Z,60.27
2024-04-21T07:26:54.810Z,60.77
2024-04-21T07:29:23.526Z,60.30
2024-04-21T07:31:51.697Z,58.16
2024-04-21T07:34:20.182Z,58.47
2024-04-21T07:36:48.633Z,58.79
2024-04-21T07:39:18.737Z,57.82
2024-04-21T07:41:46.757Z,57.28
2024-04-21T07:44:14.810Z,57.68
2024-04-21T07:46:42.855Z,54.86
2024-04-21T07:49:10.837Z,55.53
2024-04-21T07:51:39.037Z,53.28
2024-04-21T07:54:07.481Z,51.65
2024-04-21T07:56:35.498Z,51.99
2024-04-21T07:59:03.601Z,51.33
2024-04-21T08:01:31.753Z,50.97
2024-04-21T08:03:59.641Z,49.87
2024-04-21T08:06:27.626Z,50.66
2024-04-21T08:09:01.030Z,48.22
2024-04-21T08:11:35.522Z,49.32
2024-04-21T08:14:03.660Z,49.66
2024-04-21T08:16:34.304Z,49.85
2024-04-21T08:19:02.655Z,49.43
2024-04-21T08:21:30.815Z,49.11
2024-04-21T08:23:58.810Z,49.69
2024-04-21T08:26:27.678Z,50.68
2024-04-21T08:28:55.765Z,50.28
2024-04-21T08:31:23.869Z,48.47
2024-04-21T08:33:51.963Z,47.63
2024-04-21T08:36:20.080Z,47.99
2024-04-21T08:38:48.134Z,47.87
2024-04-21T08:41:20.842Z,47.21
2024-04-21T08:43:49.191Z,45.83
2024-04-21T08:46:17.533Z,45.05
2024-04-21T08:48:45.646Z,45.81
2024-04-21T08:51:14.564Z,46.03
2024-04-21T08:53:42.528Z,44.52
2024-04-21T08:56:19.021Z,44.27
2024-04-21T08:58:51.542Z,43.75
2024-04-21T09:01:19.974Z,43.14
2024-04-21T09:03:49.377Z,43.68
2024-04-21T09:06:17.931Z,43.22
2024-04-21T09:08:45.773Z,43.45
2024-04-21T09:11:13.624Z,43.49
2024-04-21T09:13:41.796Z,43.61
2024-04-21T09:16:10.924Z,42.55
2024-04-21T09:18:39.342Z,42.95
2024-04-21T09:21:07.573Z,41.30
2024-04-21T09:23:36.051Z,41.20
2024-04-21T09:26:05.812Z,40.76
2024-04-21T09:28:34.214Z,38.82
2024-04-21T09:31:02.232Z,37.47
2024-04-21T09:33:30.992Z,37.26
2024-04-21T09:35:59.744Z,37.56
2024-04-21T09:38:27.929Z,38.17
2024-04-21T09:40:57.841Z,39.49
2024-04-21T09:43:28.620Z,38.62
2024-04-21T09:45:59.128Z,38.02
2024-04-21T09:48:30.549Z,37.79
2024-04-21T09:50:58.538Z,37.89
2024-04-21T09:53:28.134Z,38.68
2024-04-21T09:55:57.045Z,38.51
2024-04-21T09:58:26.582Z,37.20
2024-04-21T10:00:54.945Z,37.07
2024-04-21T10:03:23.187Z,36.64
2024-04-21T10:05:52.815Z,35.22
2024-04-21T10:08:23.005Z,36.10
2024-04-21T10:10:54.221Z,35.41
2024-04-21T10:13:23.027Z,34.93
2024-04-21T10:15:51.770Z,34.95
2024-04-21T10:18:24.904Z,33.95
2024-04-21T10:20:54.199Z,32.10
2024-04-21T10:23:22.157Z,32.54
2024-04-21T10:25:52.273Z,32.20
2024-04-21T10:28:26.306Z,31.91
2024-04-21T10:31:03.670Z,31.62
2024-04-21T10:33:31.833Z,31.31
2024-04-21T10:35:59.707Z,28.87
2024-04-21T10:38:27.502Z,28.20
2024-04-21T10:40:56.891Z,29.11
2024-04-21T10:43:26.800Z,28.91
2024-04-21T10:45:56.078Z,27.83
2024-04-21T10:48:24.447Z,29.32
2024-04-21T10:50:52.523Z,30.02
2024-04-21T10:53:20.786Z,28.55
2024-04-21T10:55:51.014Z,27.72
2024-04-21T10:58:20.535Z,27.35
2024-04-21T11:00:48.785Z,27.44
2024-04-21T11:03:17.566Z,26.68
2024-04-21T11:05:54.813Z,26.69
2024-04-21T11:08:24.855Z,26.78
2024-04-21T11:10:53.018Z,27.45
2024-04-21T11:13:22.508Z,27.65
2024-04-21T11:15:50.562Z,26.36
2024-04-21T11:18:18.780Z,26.54
2024-04-21T11:20:47.026Z,26.67
2024-04-21T11:23:19.758Z,25.75
2024-04-21T11:25:47.789Z,26.31
2024-04-21T11:28:17.335Z,25.97
2024-04-21T11:30:45.640Z,25.62
2024-04-21T11:33:13.651Z,26.16
2024-04-21T11:35:42.034Z,24.86
2024-04-21T11:38:09.810Z,24.95
2024-04-21T11:40:38.417Z,24.35
2024-04-21T11:43:06.343Z,23.40
2024-04-21T11:45:34.479Z,23.51
2024-04-21T11:48:02.379Z,23.65
2024-04-21T11:50:30.625Z,23.03
2024-04-21T11:52:58.418Z,22.97
2024-04-21T11:55:26.445Z,23.01
2024-04-21T11:57:54.433Z,22.73
2024-04-21T12:00:22.520Z,22.39
2024-04-21T12:02:50.847Z,21.79
2024-04-21T12:05:18.877Z,22.20
2024-04-21T12:07:47.186Z,22.33
2024-04-21T12:10:15.340Z,22.92
2024-04-21T12:12:43.846Z,23.35
2024-04-21T12:15:11.703Z,22.94
2024-04-21T12:17:39.776Z,23.10
2024-04-21T12:20:08.115Z,22.37
2024-04-21T12:22:36.087Z,22.49
2024-04-21T12:25:04.350Z,23.18
2024-04-21T12:27:32.353Z,23.32
2024-04-21T12:30:00.672Z,22.60
2024-04-21T12:32:28.780Z,22.60
2024-04-21T12:34:56.747Z,22.78
2024-04-21T12:37:24.902Z,23.17
2024-04-21T12:39:52.878Z,23.25
2024-04-21T12:42:20.985Z,23.47
2024-04-21T12:44:48.790Z,23.42
2024-04-21T12:47:17.760Z,23.29
2024-04-21T12:49:45.810Z,23.44
2024-04-21T12:52:14.563Z,22.85
2024-04-21T12:54:42.530Z,23.03
2024-04-21T12:57:10.592Z,23.64
2024-04-21T12:59:38.586Z,23.89
2024-04-21T13:02:07.160Z,23.70
2024-04-21T13:04:35.339Z,24.78
2024-04-21T13:07:03.294Z,25.63
2024-04-21T13:09:31.284Z,26.82
2024-04-21T13:11:59.729Z,27.37
2024-04-21T13:14:27.705Z,27.24
2024-04-21T13:16:55.758Z,27.33
2024-04-21T13:19:28.832Z,27.10
2024-04-21T13:21:56.875Z,26.76
2024-04-21T13:24:25.135Z,26.98
2024-04-21T13:26:53.041Z,27.39
2024-04-21T13:29:21.180Z,28.49
2024-04-21T13:31:49.207Z,29.53
2024-04-21T13:34:17.366Z,30.19
2024-04-21T13:36:45.623Z,30.55
2024-04-21T13:39:13.452Z,30.92
2024-04-21T13:41:41.226Z,30.96
2024-04-21T13:44:09.585Z,30.99
2024-04-21T13:46:37.734Z,31.31
2024-04-21T13:49:05.664Z,31.45
2024-04-21T13:51:33.851Z,31.73
2024-04-21T13:54:02.541Z,31.81
2024-04-21T13:56:31.127Z,32.31
2024-04-21T13:58:59.225Z,32.67
2024-04-21T14:01:27.428Z,32.97
2024-04-21T14:03:56.563Z,32.93
2024-04-21T14:06:30.357Z,33.65
2024-04-21T14:08:58.823Z,33.43
2024-04-21T14:11:26.712Z,33.14
2024-04-21T14:13:55.112Z,32.84
2024-04-21T14:16:23.191Z,32.42
2024-04-21T14:18:52.626Z,30.94
2024-04-21T14:21:21.778Z,30.47
2024-04-21T14:23:49.567Z,28.55
2024-04-21T14:26:17.333Z,28.41
2024-04-21T14:28:45.901Z,27.80
2024-04-21T14:31:13.872Z,27.60
2024-04-21T14:33:41.671Z,27.74
2024-04-21T14:36:09.461Z,26.98
2024-04-21T14:38:37.781Z,27.24
2024-04-21T14:41:05.982Z,27.47
2024-04-21T14:43:33.874Z,27.04
2024-04-21T14:46:01.796Z,26.36
2024-04-21T14:48:30.515Z,26.31
2024-04-21T14:50:59.068Z,26.21
2024-04-21T14:53:27.854Z,25.04
2024-04-21T14:56:00.240Z,24.60
2024-04-21T14:58:28.550Z,23.34
2024-04-21T15:00:56.772Z,22.80
2024-04-21T15:03:25.073Z,22.28
2024-04-21T15:05:53.390Z,21.76
2024-04-21T15:08:21.350Z,22.08
2024-04-21T15:10:50.694Z,22.31
2024-04-21T15:13:18.885Z,22.12
2024-04-21T15:15:47.186Z,21.93
2024-04-21T15:18:15.127Z,22.18
2024-04-21T15:20:52.025Z,21.33
2024-04-21T15:23:19.994Z,22.19
2024-04-21T15:25:48.089Z,21.82
2024-04-21T15:28:16.022Z,22.22
2024-04-21T15:30:43.901Z,21.04
2024-04-21T15:33:12.269Z,21.61
2024-04-21T15:35:41.789Z,22.43
2024-04-21T15:38:09.750Z,22.68
2024-04-21T15:40:37.723Z,23.13
2024-04-21T15:43:08.204Z,23.19
2024-04-21T15:45:36.363Z,23.88
2024-04-21T15:48:04.752Z,23.88
2024-04-21T15:50:32.852Z,24.64
2024-04-21T15:53:00.690Z,25.35
2024-04-21T15:55:29.664Z,25.50
2024-04-21T15:57:57.834Z,25.28
2024-04-21T16:00:26.164Z,24.98
2024-04-21T16:02:54.126Z,24.94
2024-04-21T16:05:23.774Z,24.53
2024-04-21T16:07:52.450Z,24.22
2024-04-21T16:10:21.084Z,23.73
2024-04-21T16:12:50.516Z,23.41
2024-04-21T16:15:19.879Z,22.98
2024-04-21T16:17:50.236Z,22.82
2024-04-21T16:20:18.528Z,23.91
2024-04-21T16:22:47.382Z,25.02
2024-04-21T16:25:15.667Z,25.57
2024-04-21T16:27:43.562Z,26.18
2024-04-21T16:30:11.851Z,26.80
2024-04-21T16:32:42.051Z,27.34
2024-04-21T16:35:10.678Z,28.03
2024-04-21T16:37:40.257Z,28.72
2024-04-21T16:40:08.765Z,29.32
2024-04-21T16:42:37.021Z,30.33
2024-04-21T16:45:05.354Z,31.01
2024-04-21T16:47:36.049Z,31.29
2024-04-21T16:50:04.378Z,31.81
2024-04-21T16:52:32.730Z,32.14
2024-04-21T16:55:00.874Z,32.70
2024-04-21T16:57:29.909Z,32.39
2024-04-21T16:59:58.129Z,32.81
2024-04-21T17:02:26.300Z,33.67
2024-04-21T17:04:56.911Z,34.38
2024-04-21T17:07:31.017Z,34.77
2024-04-21T17:09:59.746Z,35.24
2024-04-21T17:12:28.062Z,35.38
2024-04-21T17:14:55.837Z,35.37
2024-04-21T17:17:23.729Z,36.00
2024-04-21T17:19:51.790Z,35.51
2024-04-21T17:22:20.576Z,36.19
2024-04-21T17:24:48.734Z,36.90
2024-04-21T17:27:16.804Z,37.93
2024-04-21T17:29:44.614Z,38.11
2024-04-21T17:32:12.796Z,38.66
2024-04-21T17:34:41.123Z,39.00
2024-04-21T17:37:09.128Z,39.19
2024-04-21T17:39:37.254Z,39.64
2024-04-21T17:42:05.458Z,40.26
2024-04-21T17:44:33.357Z,40.55
2024-04-21T17:47:02.455Z,41.12
2024-04-21T17:49:30.668Z,41.81
2024-04-21T17:51:59.401Z,42.04
2024-04-21T17:54:27.563Z,41.95
2024-04-21T17:56:57.625Z,42.46
2024-04-21T17:59:25.493Z,43.07
2024-04-21T18:01:53.937Z,43.02
2024-04-21T18:04:22.122Z,43.37
2024-04-21T18:06:51.076Z,43.38
2024-04-21T18:09:18.910Z,43.45
2024-04-21T18:11:47.596Z,44.40
2024-04-21T18:14:15.641Z,44.48
2024-04-21T18:16:43.658Z,44.76
2024-04-21T18:19:11.607Z,45.53
2024-04-21T18:21:44.821Z,45.09
2024-04-21T18:24:12.780Z,44.86
2024-04-21T18:26:42.445Z,45.32
2024-04-21T18:29:13.367Z,45.78
2024-04-21T18:31:41.258Z,46.49
2024-04-21T18:34:09.396Z,46.41
2024-04-21T18:36:37.424Z,47.09
2024-04-21T18:39:05.508Z,47.16
2024-04-21T18:41:33.785Z,47.52
2024-04-21T18:44:01.633Z,48.03
2024-04-21T18:46:30.333Z,49.33
2024-04-21T18:48:58.945Z,48.93
2024-04-21T18:51:26.735Z,49.21
2024-04-21T18:53:55.447Z,49.77
2024-04-21T18:56:23.239Z,49.40
2024-04-21T18:58:51.165Z,49.88
2024-04-21T19:01:19.078Z,49.64
2024-04-21T19:03:47.261Z,50.04
2024-04-21T19:06:18.116Z,50.34
2024-04-21T19:08:46.097Z,50.40
2024-04-21T19:11:14.283Z,50.83
2024-04-21T19:13:43.459Z,51.36
2024-04-21T19:16:12.696Z,51.69
2024-04-21T19:18:40.780Z,51.87
2024-04-21T19:21:09.301Z,51.91
2024-04-21T19:23:38.194Z,52.03
2024-04-21T19:26:06.003Z,52.71
2024-04-21T19:28:35.737Z,52.56
2024-04-21T19:31:04.183Z,52.52
2024-04-21T19:33:32.106Z,52.72
2024-04-21T19:36:00.133Z,52.93
2024-04-21T19:38:28.206Z,52.90
2024-04-21T19:40:56.149Z,53.33
2024-04-21T19:43:24.247Z,53.61
2024-04-21T19:45:54.827Z,53.99
2024-04-21T19:48:24.588Z,54.64
2024-04-21T19:50:57.008Z,54.72
2024-04-21T19:53:25.400Z,54.54
2024-04-21T19:55:53.595Z,54.94
2024-04-21T19:58:21.609Z,55.33
2024-04-21T20:00:52.108Z,56.47
2024-04-21T20:03:21.335Z,55.76
2024-04-21T20:05:49.477Z,55.58
2024-04-21T20:08:17.498Z,55.68
2024-04-21T20:10:45.575Z,55.68
2024-04-21T20:13:13.551Z,56.72
2024-04-21T20:16:00.005Z,57.09
2024-04-21T20:18:41.191Z,57.12
2024-04-21T20:21:09.399Z,57.65
2024-04-21T20:23:37.845Z,57.46
2024-04-21T20:26:12.780Z,57.30
2024-04-21T20:28:41.255Z,57.19
2024-04-21T20:31:15.919Z,57.21
2024-04-21T20:33:45.519Z,57.50
2024-04-21T20:36:19.949Z,57.75
2024-04-21T20:38:48.555Z,57.93
2024-04-21T20:41:19.266Z,57.71
2024-04-21T20:43:47.332Z,58.49
2024-04-21T20:46:23.436Z,59.07
2024-04-21T20:48:53.492Z,59.50
2024-04-21T20:51:21.318Z,60.44
2024-04-21T20:53:49.876Z,59.90
2024-04-21T20:56:18.182Z,59.90
2024-04-21T20:58:52.306Z,60.27
2024-04-21T21:01:21.776Z,60.09
2024-04-21T21:03:50.819Z,59.74
2024-04-21T21:06:21.672Z,59.94
2024-04-21T21:08:49.817Z,60.51
2024-04-21T21:11:17.739Z,60.45
2024-04-21T21:13:45.933Z,60.42
2024-04-21T21:16:13.885Z,61.04
2024-04-21T21:18:42.081Z,61.84
2024-04-21T21:21:10.007Z,61.86
2024-04-21T21:23:37.854Z,61.54
2024-04-21T21:26:05.790Z,61.70
2024-04-21T21:28:33.699Z,62.40
2024-04-21T21:31:02.645Z,62.49
2024-04-21T21:33:31.019Z,62.01
2024-04-21T21:35:59.086Z,61.60
2024-04-21T21:38:27.582Z,61.71
2024-04-21T21:40:57.422Z,61.71
2024-04-21T21:43:25.998Z,62.12
2024-04-21T21:45:53.907Z,62.82
2024-04-21T21:48:21.730Z,62.96
2024-04-21T21:50:49.801Z,62.95
2024-04-21T21:53:17.761Z,62.60
2024-04-21T21:55:46.352Z,63.01
2024-04-21T21:58:14.314Z,63.31
2024-04-21T22:00:42.258Z,62.94
2024-04-21T22:03:13.469Z,62.85
2024-04-21T22:05:41.251Z,63.17
2024-04-21T22:08:09.267Z,63.37
2024-04-21T22:10:37.046Z,63.32
2024-04-21T22:13:05.042Z,63.23
2024-04-21T22:15:32.925Z,63.63
2024-04-21T22:18:00.981Z,63.81
2024-04-21T22:20:29.251Z,64.03
2024-04-21T22:22:57.352Z,63.60
2024-04-21T22:25:25.447Z,64.05
2024-04-21T22:27:53.573Z,65.18
2024-04-21T22:30:21.562Z,67.51
2024-04-21T22:32:49.650Z,68.02
2024-04-21T22:35:18.009Z,67.24
2024-04-21T22:37:46.331Z,67.50
2024-04-21T22:40:14.591Z,66.49
2024-04-21T22:42:43.661Z,66.18
2024-04-21T22:45:11.962Z,66.14
2024-04-21T22:47:40.248Z,65.73
2024-04-21T22:50:08.304Z,65.33
2024-04-21T22:52:36.889Z,65.63
2024-04-21T22:55:05.228Z,65.57
2024-04-21T22:57:33.195Z,65.80
2024-04-21T23:00:00.967Z,65.83
2024-04-21T23:02:29.056Z,65.74
2024-04-21T23:04:57.238Z,65.82
2024-04-21T23:07:25.517Z,65.91
2024-04-21T23:09:53.527Z,65.76
2024-04-21T23:12:21.321Z,65.68
2024-04-21T23:14:49.575Z,65.87
2024-04-21T23:17:17.371Z,65.75
2024-04-21T23:19:45.211Z,65.57
2024-04-21T23:22:13.429Z,65.79
2024-04-21T23:24:41.547Z,65.81
2024-04-21T23:27:09.637Z,65.93
2024-04-21T23:29:37.718Z,66.05
2024-04-21T23:32:05.787Z,66.41
2024-04-21T23:34:34.033Z,66.08
2024-04-21T23:37:02.338Z,66.39
2024-04-21T23:39:30.151Z,66.36
2024-04-21T23:41:57.923Z,66.53
2024-04-21T23:44:25.719Z,66.96
2024-04-21T23:46:53.842Z,66.96
2024-04-21T23:49:21.749Z,67.05
2024-04-21T23:51:50.724Z,67.04
2024-04-21T23:54:18.704Z,67.05
2024-04-21T23:56:46.980Z,66.96
2024-04-21T23:59:17.813Z,66.86
